Time;durP1;ratioP1;P1;durP2;ratioP2;P2;SDS_P1;SDS_P2;PMS_P1;PMS_P2;Temp;Humidity;BMP_temperature;BMP_pressure;BME280_temperature;BME280_humidity;BME280_pressure;Samples;Min_cycle;Max_cycle;Signal;HPM_P1;HPM_P2
2022/09/03 00:02:19;;;;;;;;;;;;;;;17.69;41.81;100688.38;5085019;28;19920;-80
2022/09/03 00:05:04;;;;;;;;;;;;;;;17.62;42.94;100684.38;5098872;28;20003;-80
2022/09/03 00:07:45;;;;;;;;;;;;;;;17.62;41.98;100684.38;5098783;28;20331;-80
2022/09/03 00:10:13;;;;;;;;;;;;;;;17.63;42.78;100684.28;5093668;28;19973;-80
2022/09/03 00:12:41;;;;;;;;;;;;;;;17.65;43.07;100686.84;5091178;28;20295;-80
2022/09/03 00:15:11;;;;;;;;;;;;;;;17.62;42.92;100687.84;5073888;28;19916;-80
2022/09/03 00:17:39;;;;;;;;;;;;;;;17.57;43.04;100682.78;5099178;28;19912;-79
2022/09/03 00:20:11;;;;;;;;;;;;;;;17.57;43.48;100689.81;5077623;28;20423;-79
2022/09/03 00:22:41;;;;;;;;;;;;;;;17.57;42.77;100687.19;5099843;28;20002;-80
2022/09/03 00:25:13;;;;;;;;;;;;;;;17.55;42.97;100689.06;5095276;28;19970;-80
2022/09/03 00:27:41;;;;;;;;;;;;;;;17.55;42.87;100686.44;5105235;28;19915;-79
2022/09/03 00:30:11;;;;;;;;;;;;;;;17.50;42.92;100678.78;5082502;28;19924;-79
2022/09/03 00:32:45;;;;;;;;;;;;;;;17.50;42.59;100685.81;5101511;28;19916;-80
2022/09/03 00:35:37;;;;;;;;;;;;;;;17.46;43.03;100690.38;5089336;28;20002;-80
2022/09/03 00:38:02;;;;;;;;;;;;;;;17.42;43.41;100686.19;5096385;28;19916;-80
2022/09/03 00:40:37;;;;;;;;;;;;;;;17.49;42.93;100686.75;5094824;28;19927;-79
2022/09/03 00:43:12;;;;;;;;;;;;;;;17.44;42.90;100686.97;5093936;28;20023;-79
2022/09/03 00:45:45;;;;;;;;;;;;;;;17.47;43.10;100689.44;5096598;28;19928;-80
2022/09/03 00:48:13;;;;;;;;;;;;;;;17.41;43.33;100683.66;5098665;28;19965;-79
2022/09/03 00:50:45;;;;;;;;;;;;;;;17.41;42.63;100683.66;5097599;28;20269;-80
2022/09/03 00:53:26;;;;;;;;;;;;;;;17.38;43.06;100676.75;5107605;28;20557;-80
2022/09/03 00:55:55;;;;;;;;;;;;;;;17.42;42.60;100673.06;5098753;28;19998;-80
2022/09/03 00:58:21;;;;;;;;;;;;;;;17.39;43.00;100677.63;5099905;28;20296;-80
2022/09/03 01:00:46;;;;;;;;;;;;;;;17.38;42.90;100671.50;5110023;28;19924;-80
2022/09/03 01:03:17;;;;;;;;;;;;;;;17.37;42.63;100682.09;5096386;28;19916;-80
2022/09/03 01:05:42;;;;;;;;;;;;;;;17.37;42.91;100682.97;5104204;28;19919;-80
2022/09/03 01:08:17;;;;;;;;;;;;;;;17.35;43.13;100671.66;5089520;28;19923;-80
2022/09/03 01:10:53;;;;;;;;;;;;;;;17.33;43.46;100680.56;5097822;28;19920;-80
2022/09/03 01:13:21;;;;;;;;;;;;;;;17.34;43.05;100672.63;5104279;28;20437;-80
2022/09/03 01:15:47;;;;;;;;;;;;;;;17.32;43.28;100681.50;5088868;28;19924;-80
2022/09/03 01:18:19;;;;;;;;;;;;;;;17.34;43.62;100671.75;5098133;28;19916;-79
2022/09/03 01:20:44;;;;;;;;;;;;;;;17.32;43.90;100681.50;5094193;28;20014;-80
2022/09/03 01:23:34;;;;;;;;;;;;;;;17.31;43.69;100677.16;5101469;28;20042;-80
2022/09/03 01:26:00;;;;;;;;;;;;;;;17.32;43.37;100678.88;5104437;28;19916;-80
2022/09/03 01:28:41;;;;;;;;;;;;;;;17.29;43.54;100676.41;5099812;28;19924;-80
2022/09/03 01:31:15;;;;;;;;;;;;;;;17.28;43.48;100682.56;5100478;28;19916;-80
2022/09/03 01:33:46;;;;;;;;;;;;;;;17.26;44.35;100684.44;5103020;28;20284;-80
2022/09/03 01:36:34;;;;;;;;;;;;;;;17.24;43.85;100684.50;5081669;28;20373;-79
2022/09/03 01:39:07;;;;;;;;;;;;;;;17.29;43.32;100684.28;5087383;28;19927;-79
2022/09/03 01:44:43;;;;;;;;;;;;;;;17.29;43.91;100684.28;5095763;28;19973;-80
2022/09/03 01:47:11;;;;;;;;;;;;;;;17.27;43.75;100673.84;5100798;28;19916;-80
2022/09/03 01:49:40;;;;;;;;;;;;;;;17.22;44.13;100680.25;5100533;28;19920;-79
2022/09/03 01:52:10;;;;;;;;;;;;;;;17.21;44.25;100676.75;5097007;28;19969;-80
2022/09/03 01:54:54;;;;;;;;;;;;;;;17.16;43.97;100677.91;5105180;28;19916;-80
2022/09/03 01:57:37;;;;;;;;;;;;;;;17.12;43.93;100671.97;5078578;28;19916;-80
2022/09/03 02:00:09;;;;;;;;;;;;;;;17.19;44.21;100676.00;5105516;28;19936;-79
2022/09/03 02:02:35;;;;;;;;;;;;;;;17.18;43.91;100670.81;5103532;28;19971;-80
2022/09/03 02:05:08;;;;;;;;;;;;;;;17.17;44.47;100672.63;5093737;28;20364;-80
2022/09/03 02:07:40;;;;;;;;;;;;;;;17.20;44.42;100669.84;5102426;28;19969;-79
2022/09/03 02:10:07;;;;;;;;;;;;;;;17.13;44.65;100668.44;5098703;28;19920;-79
2022/09/03 02:12:34;;;;;;;;;;;;;;;17.11;45.07;100666.81;5113774;28;20060;-80
2022/09/03 02:15:02;;;;;;;;;;;;;;;17.11;44.24;100672.91;5104682;28;19977;-79
2022/09/03 02:17:28;;;;;;;;;;;;;;;17.10;44.55;100665.97;5104921;28;19960;-80
2022/09/03 02:19:54;;;;;;;;;;;;;;;17.08;44.80;100656.47;5096906;28;20335;-80
2022/09/03 02:22:19;;;;;;;;;;;;;;;17.02;44.07;100655.84;5102525;28;19916;-80
2022/09/03 02:24:44;;;;;;;;;;;;;;;17.10;44.00;100663.34;5105798;28;20038;-80
2022/09/03 02:27:10;;;;;;;;;;;;;;;17.10;44.50;100660.72;5106095;28;19962;-79
2022/09/03 02:29:35;;;;;;;;;;;;;;;17.10;44.18;100657.22;5104607;28;19962;-79
2022/09/03 02:32:00;;;;;;;;;;;;;;;17.05;44.59;100663.56;5083094;28;19919;-79
2022/09/03 02:34:26;;;;;;;;;;;;;;;17.09;44.49;100664.25;5103533;28;19954;-80
2022/09/03 02:36:51;;;;;;;;;;;;;;;17.02;44.56;100668.97;5084767;28;19916;-79
2022/09/03 02:39:16;;;;;;;;;;;;;;;17.08;44.88;100671.25;5088913;28;19921;-79
2022/09/03 02:41:42;;;;;;;;;;;;;;;17.02;44.74;100668.13;5098078;28;19926;-80
2022/09/03 02:44:10;;;;;;;;;;;;;;;17.07;44.37;100660.84;5095115;28;19916;-80
2022/09/03 02:46:42;;;;;;;;;;;;;;;17.08;44.26;100664.34;5099025;28;20376;-80
2022/09/03 02:49:07;;;;;;;;;;;;;;;17.11;44.83;100669.44;5077805;28;20372;-79
2022/09/03 02:51:38;;;;;;;;;;;;;;;17.03;43.98;100660.16;5097506;28;19946;-79
2022/09/03 02:54:04;;;;;;;;;;;;;;;17.05;44.54;100660.94;5098050;28;19965;-80
2022/09/03 02:56:29;;;;;;;;;;;;;;;17.09;44.68;100661.63;5107083;28;19911;-79
2022/09/03 02:58:55;;;;;;;;;;;;;;;17.04;45.23;100663.63;5100523;28;20254;-80
2022/09/03 03:01:20;;;;;;;;;;;;;;;17.08;44.63;100662.56;5091798;28;19990;-80
2022/09/03 03:03:46;;;;;;;;;;;;;;;17.01;45.00;100659.38;5089499;28;19916;-80
2022/09/03 03:06:12;;;;;;;;;;;;;;;17.05;45.06;100658.31;5092457;28;19916;-79
2022/09/03 03:08:38;;;;;;;;;;;;;;;17.04;44.96;100658.38;5083912;28;20385;-80
2022/09/03 03:11:03;;;;;;;;;;;;;;;17.02;45.49;100657.63;5094711;28;19920;-80
2022/09/03 03:13:29;;;;;;;;;;;;;;;17.05;44.72;100652.22;5103343;28;19924;-80
2022/09/03 03:15:55;;;;;;;;;;;;;;;17.07;44.67;100650.34;5106308;28;20012;-79
2022/09/03 03:18:21;;;;;;;;;;;;;;;17.07;44.63;100647.72;5096337;28;20393;-80
2022/09/03 03:20:47;;;;;;;;;;;;;;;17.08;44.47;100654.69;5089348;28;19924;-80
2022/09/03 03:23:12;;;;;;;;;;;;;;;17.10;44.33;100646.72;5094934;28;19916;-80
2022/09/03 03:25:38;;;;;;;;;;;;;;;17.10;44.38;100651.97;5083283;28;20411;-80
2022/09/03 03:28:05;;;;;;;;;;;;;;;17.08;45.08;100652.88;5098446;28;19948;-80
2022/09/03 03:30:30;;;;;;;;;;;;;;;17.07;44.90;100658.22;5107763;28;20011;-79
2022/09/03 03:32:56;;;;;;;;;;;;;;;17.04;45.01;100656.63;5091845;28;19956;-79
2022/09/03 03:35:21;;;;;;;;;;;;;;;17.01;44.76;100645.41;5103543;28;19943;-79
2022/09/03 03:37:47;;;;;;;;;;;;;;;17.00;44.70;100646.31;5098114;28;20007;-79
2022/09/03 03:40:12;;;;;;;;;;;;;;;16.93;44.05;100651.06;5097733;28;19959;-80
2022/09/03 03:42:38;;;;;;;;;;;;;;;16.97;44.50;100649.97;5112165;28;19916;-79
2022/09/03 03:45:04;;;;;;;;;;;;;;;17.00;44.64;100648.94;5106108;28;20023;-80
2022/09/03 03:47:32;;;;;;;;;;;;;;;17.01;45.25;100655.91;5103125;28;20062;-80
2022/09/03 03:49:58;;;;;;;;;;;;;;;17.00;44.88;100649.81;5098669;28;19922;-80
2022/09/03 03:52:24;;;;;;;;;;;;;;;17.02;44.33;100650.59;5099459;28;20363;-80
2022/09/03 03:54:49;;;;;;;;;;;;;;;16.92;44.92;100646.72;5103503;28;19916;-80
2022/09/03 03:57:15;;;;;;;;;;;;;;;17.00;44.84;100655.06;5092812;28;19955;-80
2022/09/03 03:59:40;;;;;;;;;;;;;;;17.00;44.84;100652.44;5098292;28;20018;-80
2022/09/03 04:02:05;;;;;;;;;;;;;;;17.00;44.19;100646.31;5099689;28;20003;-80
2022/09/03 04:04:31;;;;;;;;;;;;;;;17.04;44.81;100653.13;5101528;28;19923;-80
2022/09/03 04:06:56;;;;;;;;;;;;;;;17.05;45.17;100646.97;5099831;28;19923;-80
2022/09/03 04:09:21;;;;;;;;;;;;;;;17.01;44.55;100646.28;5103483;28;19916;-80
2022/09/03 04:11:47;;;;;;;;;;;;;;;17.05;44.14;100646.97;5100118;28;19919;-80
2022/09/03 04:14:12;;;;;;;;;;;;;;;17.06;44.65;100652.13;5101198;28;20001;-80
2022/09/03 04:16:37;;;;;;;;;;;;;;;17.11;44.18;100653.69;5088997;28;19917;-80
2022/09/03 04:19:03;;;;;;;;;;;;;;;17.11;44.70;100656.31;5089248;28;19920;-80
2022/09/03 04:21:29;;;;;;;;;;;;;;;17.07;45.33;100655.59;5091990;28;19916;-79
2022/09/03 04:23:55;;;;;;;;;;;;;;;17.07;45.27;100652.97;5085947;28;20368;-79
2022/09/03 04:26:22;;;;;;;;;;;;;;;17.03;44.36;100648.81;5092727;28;19908;-80
2022/09/03 04:28:47;;;;;;;;;;;;;;;17.02;44.19;100644.50;5094991;28;19965;-80
2022/09/03 04:31:14;;;;;;;;;;;;;;;17.06;44.67;100649.50;5081846;28;19924;-79
2022/09/03 04:33:40;;;;;;;;;;;;;;;17.06;45.24;100640.78;5080127;28;19923;-79
2022/09/03 04:36:05;;;;;;;;;;;;;;;17.08;44.56;100643.34;5094882;28;20377;-79
2022/09/03 04:38:32;;;;;;;;;;;;;;;17.02;44.58;100647.13;5097833;28;19912;-80
2022/09/03 04:40:58;;;;;;;;;;;;;;;17.01;44.79;100642.78;5089581;28;19920;-80
2022/09/03 04:43:24;;;;;;;;;;;;;;;17.04;45.06;100640.00;5067851;28;20039;-80
2022/09/03 04:45:49;;;;;;;;;;;;;;;17.03;44.81;100644.41;5095640;28;20007;-80
2022/09/03 04:48:14;;;;;;;;;;;;;;;17.02;45.30;100640.09;5105048;28;19915;-79
2022/09/03 04:50:40;;;;;;;;;;;;;;;17.03;45.02;100635.69;5102007;28;19922;-80
2022/09/03 04:53:06;;;;;;;;;;;;;;;17.02;45.51;100641.88;5093511;28;19920;-80
2022/09/03 04:55:35;;;;;;;;;;;;;;;17.08;45.17;100641.56;5095582;28;19950;-80
2022/09/03 04:58:00;;;;;;;;;;;;;;;17.02;45.08;100642.72;5102560;28;19966;-80
2022/09/03 05:00:26;;;;;;;;;;;;;;;16.99;45.28;100645.50;5103721;28;19947;-80
2022/09/03 05:02:51;;;;;;;;;;;;;;;17.01;44.72;100648.88;5100162;28;20002;-79
2022/09/03 05:05:17;;;;;;;;;;;;;;;17.04;45.29;100653.13;5110460;28;19955;-79
2022/09/03 05:07:42;;;;;;;;;;;;;;;17.00;45.55;100647.19;5105652;28;20028;-80
2022/09/03 05:10:11;;;;;;;;;;;;;;;17.03;45.46;100652.28;5108130;28;20305;-79
2022/09/03 05:12:37;;;;;;;;;;;;;;;17.07;45.76;100658.22;5110233;28;20380;-80
2022/09/03 05:15:04;;;;;;;;;;;;;;;17.05;45.99;100655.69;5110280;28;19990;-79
2022/09/03 05:17:29;;;;;;;;;;;;;;;17.10;45.75;100657.22;5102539;28;19946;-80
2022/09/03 05:19:54;;;;;;;;;;;;;;;17.10;45.87;100655.47;5075429;28;19956;-80
2022/09/03 05:22:23;;;;;;;;;;;;;;;17.11;45.43;100662.41;5081239;28;19922;-80
2022/09/03 05:24:48;;;;;;;;;;;;;;;17.15;45.48;100656.06;5102272;28;20399;-80
2022/09/03 05:27:15;;;;;;;;;;;;;;;17.10;45.01;100652.84;5106493;28;19919;-80
2022/09/03 05:29:41;;;;;;;;;;;;;;;17.16;45.10;100656.91;5102655;28;19919;-80
2022/09/03 05:32:06;;;;;;;;;;;;;;;17.20;45.00;100655.84;5106278;28;19915;-80
2022/09/03 05:34:32;;;;;;;;;;;;;;;17.22;44.93;100648.75;5104978;28;19951;-80
2022/09/03 05:36:57;;;;;;;;;;;;;;;17.18;44.90;100661.16;5101575;28;19916;-80
2022/09/03 05:39:22;;;;;;;;;;;;;;;17.21;44.83;100647.03;5065765;28;19948;-79
2022/09/03 05:41:49;;;;;;;;;;;;;;;17.20;44.64;100648.84;5106456;28;19920;-80
2022/09/03 05:44:14;;;;;;;;;;;;;;;17.20;45.00;100647.97;5107036;28;20473;-80
2022/09/03 05:46:39;;;;;;;;;;;;;;;17.11;45.07;100654.53;5104715;28;19916;-79
2022/09/03 05:49:06;;;;;;;;;;;;;;;17.23;45.09;100653.09;5088747;28;19921;-79
2022/09/03 05:51:31;;;;;;;;;;;;;;;17.25;45.05;100652.06;5100255;28;19916;-80
2022/09/03 05:53:57;;;;;;;;;;;;;;;17.26;45.40;100648.53;5107786;28;19924;-79
2022/09/03 05:56:23;;;;;;;;;;;;;;;17.30;45.18;100652.69;5113303;28;19911;-80
2022/09/03 05:58:49;;;;;;;;;;;;;;;17.31;45.10;100646.50;5092954;28;19920;-80
2022/09/03 06:01:17;;;;;;;;;;;;;;;17.29;45.72;100655.41;5102072;28;19931;-80
2022/09/03 06:03:43;;;;;;;;;;;;;;;17.38;45.29;100654.94;5109224;28;19923;-80
2022/09/03 06:06:09;;;;;;;;;;;;;;;17.35;44.85;100661.16;5113825;28;19995;-80
2022/09/03 06:08:37;;;;;;;;;;;;;;;17.39;45.36;100660.09;5112999;28;20304;-80
2022/09/03 06:11:03;;;;;;;;;;;;;;;17.49;54.88;100666.59;5103383;28;19974;-80
2022/09/03 06:13:28;;;;;;;;;;;;;;;17.42;45.65;100664.34;5102946;28;19948;-80
2022/09/03 06:15:57;;;;;;;;;;;;;;;17.45;45.46;100662.41;5099633;28;20009;-80
2022/09/03 06:18:23;;;;;;;;;;;;;;;17.48;45.39;100664.03;5098332;28;19939;-80
2022/09/03 06:20:56;;;;;;;;;;;;;;;17.51;45.87;100659.47;5081393;28;19962;-79
2022/09/03 06:23:22;;;;;;;;;;;;;;;17.49;45.17;100665.72;5097687;28;19912;-80
2022/09/03 06:25:47;;;;;;;;;;;;;;;17.49;44.94;100663.97;5099282;28;19923;-80
2022/09/03 06:28:12;;;;;;;;;;;;;;;17.58;45.18;100660.00;5108433;28;19916;-80
2022/09/03 06:30:37;;;;;;;;;;;;;;;17.48;45.13;100659.63;5102236;28;19986;-79
2022/09/03 06:33:03;;;;;;;;;;;;;;;17.52;45.70;100658.56;5094088;28;19916;-79
2022/09/03 06:35:28;;;;;;;;;;;;;;;17.57;46.82;100664.41;5082618;28;19912;-80
2022/09/03 06:37:53;;;;;;;;;;;;;;;17.63;45.66;100663.28;5086294;28;19978;-80
2022/09/03 06:40:21;;;;;;;;;;;;;;;17.64;45.79;100658.88;5091546;28;20334;-79
2022/09/03 06:42:55;;;;;;;;;;;;;;;17.65;45.56;100661.41;5100067;28;19920;-79
2022/09/03 06:45:20;;;;;;;;;;;;;;;17.71;45.62;100661.09;5094361;28;19920;-80
2022/09/03 06:47:45;;;;;;;;;;;;;;;17.73;46.06;100663.66;5077750;28;19922;-80
2022/09/03 06:50:10;;;;;;;;;;;;;;;17.79;52.55;100664.19;5070549;28;19942;-80
2022/09/03 06:52:36;;;;;;;;;;;;;;;17.78;45.76;100657.22;5083402;28;19919;-80
2022/09/03 06:55:01;;;;;;;;;;;;;;;17.83;48.14;100660.44;5110021;28;19923;-80
2022/09/03 06:57:27;;;;;;;;;;;;;;;17.86;46.48;100664.69;5105727;28;19923;-79
2022/09/03 06:59:54;;;;;;;;;;;;;;;17.87;46.75;100672.50;5111928;28;19920;-80
2022/09/03 07:02:21;;;;;;;;;;;;;;;17.86;45.38;100672.56;5105519;28;19912;-80
2022/09/03 07:04:48;;;;;;;;;;;;;;;17.88;45.50;100673.38;5107580;28;19915;-79
2022/09/03 07:07:15;;;;;;;;;;;;;;;17.93;49.61;100669.56;5107906;28;20344;-79
2022/09/03 07:09:40;;;;;;;;;;;;;;;17.98;49.47;100679.81;5096460;28;19924;-80
2022/09/03 07:12:05;;;;;;;;;;;;;;;17.97;45.00;100675.50;5101721;28;19916;-80
2022/09/03 07:14:31;;;;;;;;;;;;;;;17.97;45.01;100680.75;5112273;28;19916;-80
2022/09/03 07:16:56;;;;;;;;;;;;;;;18.03;45.25;100683.06;5070704;28;19916;-80
2022/09/03 07:19:21;;;;;;;;;;;;;;;18.04;44.72;100682.13;5111244;28;19919;-80
2022/09/03 07:21:47;;;;;;;;;;;;;;;18.05;45.79;100686.47;5111861;28;19922;-80
2022/09/03 07:24:12;;;;;;;;;;;;;;;18.06;45.73;100686.41;5112367;28;19916;-79
2022/09/03 07:26:39;;;;;;;;;;;;;;;17.99;47.24;100687.63;5099311;28;20015;-80
2022/09/03 07:29:06;;;;;;;;;;;;;;;18.08;46.59;100689.78;5102957;28;19947;-80
2022/09/03 07:31:41;;;;;;;;;;;;;;;18.08;52.67;100700.28;5093627;28;20308;-80
2022/09/03 07:34:08;;;;;;;;;;;;;;;18.09;51.71;100698.53;5094555;28;20332;-80
2022/09/03 07:36:38;;;;;;;;;;;;;;;18.07;45.53;100695.09;5109428;28;19939;-80
2022/09/03 07:39:04;;;;;;;;;;;;;;;17.93;45.05;100697.63;5085681;28;19935;-79
2022/09/03 07:41:31;;;;;;;;;;;;;;;17.95;46.95;100704.47;5092508;28;20166;-80
2022/09/03 07:43:57;;;;;;;;;;;;;;;18.02;52.31;100710.28;5092511;28;19931;-80
2022/09/03 07:46:24;;;;;;;;;;;;;;;18.02;53.14;100711.13;5092377;28;20277;-80
2022/09/03 07:48:50;;;;;;;;;;;;;;;18.00;48.32;100709.53;5083123;28;19927;-80
2022/09/03 07:51:16;;;;;;;;;;;;;;;17.98;49.14;100716.63;5091487;28;20376;-80
2022/09/03 07:53:42;;;;;;;;;;;;;;;17.98;50.86;100717.47;5092111;28;19919;-80
2022/09/03 07:56:09;;;;;;;;;;;;;;;17.97;47.44;100718.41;5091259;28;19916;-80
2022/09/03 07:58:35;;;;;;;;;;;;;;;17.99;51.77;100710.44;5091274;28;19972;-80
2022/09/03 08:01:05;;;;;;;;;;;;;;;17.92;48.43;100712.53;5091759;28;19920;-80
2022/09/03 08:03:30;;;;;;;;;;;;;;;17.98;48.39;100721.88;5073188;28;19974;-80
2022/09/03 08:06:02;;;;;;;;;;;;;;;17.99;53.79;100729.69;5090606;28;20456;-80
2022/09/03 08:08:27;;;;;;;;;;;;;;;17.96;51.09;100724.59;5091398;28;19958;-80
2022/09/03 08:10:52;;;;;;;;;;;;;;;17.86;53.47;100731.25;5072598;28;19920;-80
2022/09/03 08:13:18;;;;;;;;;;;;;;;17.81;53.61;100740.28;5090955;28;19916;-80
2022/09/03 08:15:52;;;;;;;;;;;;;;;17.80;54.76;100738.63;5091037;28;19962;-80
2022/09/03 08:18:17;;;;;;;;;;;;;;;17.85;55.00;100736.59;5083088;28;19917;-80
2022/09/03 08:20:42;;;;;;;;;;;;;;;17.81;55.53;100740.28;5092904;28;19920;-80
2022/09/03 08:23:07;;;;;;;;;;;;;;;17.76;55.36;100735.28;5100755;28;19923;-80
2022/09/03 08:25:33;;;;;;;;;;;;;;;17.80;55.65;100739.44;5096884;28;20399;-80
2022/09/03 08:27:58;;;;;;;;;;;;;;;17.73;55.37;100737.22;5107631;28;19916;-80
2022/09/03 08:30:25;;;;;;;;;;;;;;;17.63;55.34;100735.97;5104550;28;19919;-80
2022/09/03 08:32:50;;;;;;;;;;;;;;;17.68;57.69;100739.25;5089115;28;19920;-80
2022/09/03 08:35:16;;;;;;;;;;;;;;;17.59;58.63;100737.91;5102985;28;20369;-80
2022/09/03 08:37:41;;;;;;;;;;;;;;;17.66;59.25;100733.19;5088423;28;20390;-80
2022/09/03 08:40:07;;;;;;;;;;;;;;;17.63;60.16;100733.34;5089033;28;20417;-80
2022/09/03 08:42:45;;;;;;;;;;;;;;;17.61;59.17;100736.06;5086360;28;19916;-80
2022/09/03 08:45:15;;;;;;;;;;;;;;;17.60;59.80;100740.47;5086604;28;20389;-80
2022/09/03 08:47:49;;;;;;;;;;;;;;;17.59;59.58;100733.50;5075241;28;19938;-80
2022/09/03 08:50:18;;;;;;;;;;;;;;;17.62;59.48;100736.91;5088595;28;19916;-80
2022/09/03 08:52:59;;;;;;;;;;;;;;;17.65;59.43;100739.38;5071838;28;19916;-80
2022/09/03 08:55:29;;;;;;;;;;;;;;;17.63;59.29;100738.59;5076198;28;19920;-80
2022/09/03 08:57:55;;;;;;;;;;;;;;;17.67;59.06;100735.75;5072110;28;19965;-80
2022/09/03 09:00:20;;;;;;;;;;;;;;;17.74;59.49;100737.13;5090244;28;19923;-80
2022/09/03 09:03:11;;;;;;;;;;;;;;;17.76;59.23;100735.28;5087783;28;20383;-80
2022/09/03 09:05:47;;;;;;;;;;;;;;;17.81;58.62;100740.28;5090483;28;19935;-80
2022/09/03 09:08:12;;;;;;;;;;;;;;;17.82;58.30;100734.13;5089513;28;19923;-80
2022/09/03 09:10:46;;;;;;;;;;;;;;;17.88;57.89;100736.44;5089803;28;20381;-80
2022/09/03 09:13:15;;;;;;;;;;;;;;;17.83;57.29;100741.91;5059914;28;20054;-80
2022/09/03 09:15:59;;;;;;;;;;;;;;;17.96;57.10;100735.09;5090708;28;19916;-80
2022/09/03 09:18:44;;;;;;;;;;;;;;;17.94;56.65;100733.50;5089551;28;20044;-80
2022/09/03 09:21:40;;;;;;;;;;;;;;;17.96;56.25;100735.09;5095532;28;20380;-80
2022/09/03 09:24:10;;;;;;;;;;;;;;;17.99;56.56;100729.69;5070338;28;19912;-80
2022/09/03 09:26:35;;;;;;;;;;;;;;;18.02;56.20;100737.41;5089726;28;19962;-80
2022/09/03 09:29:03;;;;;;;;;;;;;;;18.00;56.07;100731.41;5090061;28;20311;-80
2022/09/03 09:31:29;;;;;;;;;;;;;;;18.14;58.11;100735.91;5072017;28;19962;-80
2022/09/03 09:34:05;;;;;;;;;;;;;;;18.12;55.17;100729.91;5088860;28;20385;-80
2022/09/03 09:36:36;;;;;;;;;;;;;;;18.14;55.56;100728.03;5079206;28;19971;-80
2022/09/03 09:39:08;;;;;;;;;;;;;;;18.17;55.70;100733.13;5080109;28;20519;-80
2022/09/03 09:41:34;;;;;;;;;;;;;;;18.22;55.55;100727.63;5089547;28;19919;-80
2022/09/03 09:44:06;;;;;;;;;;;;;;;18.25;59.90;100732.72;5090088;28;19916;-80
2022/09/03 09:46:37;;;;;;;;;;;;;;;18.20;55.74;100732.13;5083819;28;20003;-80
2022/09/03 09:49:07;;;;;;;;;;;;;;;18.27;55.54;100725.63;5083275;28;19920;-80
2022/09/03 09:51:32;;;;;;;;;;;;;;;18.28;55.76;100725.50;5095954;28;19939;-80
2022/09/03 09:54:01;;;;;;;;;;;;;;;18.28;59.55;100725.50;5109760;28;19916;-79
2022/09/03 09:56:26;;;;;;;;;;;;;;;18.33;56.04;100720.03;5102655;28;19919;-80
2022/09/03 09:59:08;;;;;;;;;;;;;;;18.35;56.19;100713.75;5078049;28;19916;-80
2022/09/03 10:01:36;;;;;;;;;;;;;;;18.33;55.72;100715.63;5079658;28;19917;-80
2022/09/03 10:04:31;;;;;;;;;;;;;;;18.38;59.94;100723.25;5089528;28;19920;-80
2022/09/03 10:07:01;;;;;;;;;;;;;;;18.41;60.23;100715.19;5081512;28;19969;-80
2022/09/03 10:09:31;;;;;;;;;;;;;;;18.43;59.21;100721.22;5081813;28;20144;-80
2022/09/03 10:12:13;;;;;;;;;;;;;;;18.41;55.27;100712.56;5089393;28;19959;-80
2022/09/03 10:14:46;;;;;;;;;;;;;;;18.43;56.73;100721.22;5089960;28;19912;-80
2022/09/03 10:17:30;;;;;;;;;;;;;;;18.45;57.92;100720.22;5068018;28;19923;-80
2022/09/03 10:22:48;;;;;;;;;;;;;;;18.47;57.68;100715.75;5088243;28;20449;-80
2022/09/03 10:25:15;;;;;;;;;;;;;;;18.49;58.69;100724.41;5093406;28;19916;-80
2022/09/03 10:27:41;;;;;;;;;;;;;;;18.52;59.07;100726.88;5088312;28;19916;-80
2022/09/03 10:30:07;;;;;;;;;;;;;;;18.54;57.02;100718.91;5089948;28;19986;-80
2022/09/03 10:32:42;;;;;;;;;;;;;;;18.57;58.00;100726.63;5072649;28;20329;-80
2022/09/03 10:35:13;;;;;;;;;;;;;;;18.61;59.32;100720.25;5082585;28;19921;-80
2022/09/03 10:37:39;;;;;;;;;;;;;;;18.64;57.40;100727.97;5077168;28;19920;-80
2022/09/03 10:40:05;;;;;;;;;;;;;;;18.69;56.60;100721.50;5083181;28;20383;-80
2022/09/03 10:42:43;;;;;;;;;;;;;;;18.72;58.32;100719.66;5092109;28;19920;-80
2022/09/03 10:45:17;;;;;;;;;;;;;;;18.75;54.78;100715.06;5092301;28;19924;-80
2022/09/03 10:47:52;;;;;;;;;;;;;;;18.75;53.80;100712.44;5081380;28;19912;-80
2022/09/03 10:50:27;;;;;;;;;;;;;;;18.77;55.78;100715.00;5092429;28;19932;-80
2022/09/03 10:52:56;;;;;;;;;;;;;;;18.76;55.19;100708.03;5092756;28;20442;-80
2022/09/03 10:55:21;;;;;;;;;;;;;;;18.78;53.58;100714.06;5075987;28;19930;-80
2022/09/03 10:57:58;;;;;;;;;;;;;;;18.75;58.94;100719.50;5092631;28;19919;-80
2022/09/03 11:00:24;;;;;;;;;;;;;;;18.76;54.12;100716.78;5092039;28;19928;-80
2022/09/03 11:02:56;;;;;;;;;;;;;;;18.82;53.54;100716.44;5092068;28;19922;-80
2022/09/03 11:05:28;;;;;;;;;;;;;;;18.80;55.22;100714.81;5093119;28;19908;-80
2022/09/03 11:07:57;;;;;;;;;;;;;;;18.80;58.28;100713.03;5092662;28;19916;-80
2022/09/03 11:10:27;;;;;;;;;;;;;;;18.85;56.82;100705.72;5094175;28;20006;-80
2022/09/03 11:12:58;;;;;;;;;;;;;;;18.83;59.71;100709.38;5095347;28;19920;-80
2022/09/03 11:15:30;;;;;;;;;;;;;;;18.92;54.37;100700.97;5093577;28;19920;-80
2022/09/03 11:18:13;;;;;;;;;;;;;;;18.85;58.51;100703.09;5092085;28;19965;-80
2022/09/03 11:20:40;;;;;;;;;;;;;;;18.90;55.13;100694.94;5100516;28;20356;-81
2022/09/03 11:23:07;;;;;;;;;;;;;;;18.90;58.50;100698.41;5074126;28;19935;-80
2022/09/03 11:25:53;;;;;;;;;;;;;;;18.93;56.01;100694.75;5073504;28;19928;-80
2022/09/03 11:28:22;;;;;;;;;;;;;;;18.96;58.02;100694.59;5091259;28;19923;-80
2022/09/03 11:30:48;;;;;;;;;;;;;;;19.01;57.92;100690.78;5090255;28;19916;-80
2022/09/03 11:33:18;;;;;;;;;;;;;;;18.94;58.58;100678.88;5073138;28;19917;-80
2022/09/03 11:35:44;;;;;;;;;;;;;;;18.88;55.64;100676.59;5093359;28;20454;-81
2022/09/03 11:38:15;;;;;;;;;;;;;;;18.91;56.46;100675.56;5098636;28;19916;-81
2022/09/03 11:40:59;;;;;;;;;;;;;;;18.95;55.24;100679.75;5099772;28;20288;-81
2022/09/03 11:43:32;;;;;;;;;;;;;;;18.84;57.50;100677.69;5098650;28;20334;-80
2022/09/03 11:46:10;;;;;;;;;;;;;;;18.93;56.97;100674.56;5109145;28;19916;-80
2022/09/03 11:48:42;;;;;;;;;;;;;;;18.91;55.84;100668.53;5098224;28;19943;-80
2022/09/03 11:51:17;;;;;;;;;;;;;;;18.84;60.11;100671.63;5103246;28;20351;-80
2022/09/03 11:53:52;;;;;;;;;;;;;;;19.00;55.43;100662.75;5106516;28;19919;-80
2022/09/03 11:56:18;;;;;;;;;;;;;;;18.97;56.76;100652.38;5102701;28;20372;-81
2022/09/03 11:58:43;;;;;;;;;;;;;;;18.87;58.92;100659.09;5096902;28;19925;-80
2022/09/03 12:01:10;;;;;;;;;;;;;;;19.01;56.04;100650.44;5104274;28;19924;-80
2022/09/03 12:04:02;;;;;;;;;;;;;;;18.94;59.43;100659.63;5108769;28;19916;-80
2022/09/03 12:06:46;;;;;;;;;;;;;;;19.00;59.04;100661.91;5106861;28;19915;-80
2022/09/03 12:09:30;;;;;;;;;;;;;;;19.01;57.35;100655.69;5110649;28;19916;-80
2022/09/03 12:11:58;;;;;;;;;;;;;;;18.98;59.68;100664.63;5072314;28;20400;-80
2022/09/03 12:14:32;;;;;;;;;;;;;;;19.05;58.56;100658.06;5071259;28;19935;-80
2022/09/03 12:17:06;;;;;;;;;;;;;;;19.00;58.67;100657.47;5058159;28;19964;-80
2022/09/03 12:19:40;;;;;;;;;;;;;;;18.90;58.63;100647.56;5070187;28;19921;-80
2022/09/03 12:22:12;;;;;;;;;;;;;;;19.05;56.92;100654.56;5070350;28;19916;-80
2022/09/03 12:24:38;;;;;;;;;;;;;;;19.04;56.72;100650.25;5071425;28;19927;-80
2022/09/03 12:27:03;;;;;;;;;;;;;;;19.04;56.87;100642.38;5074875;28;20344;-80
2022/09/03 12:29:30;;;;;;;;;;;;;;;19.18;56.41;100643.25;5077276;28;19923;-80
2022/09/03 12:32:04;;;;;;;;;;;;;;;19.16;58.51;100646.91;5075956;28;20337;-80
2022/09/03 12:34:30;;;;;;;;;;;;;;;19.12;57.10;100648.88;5069816;28;19916;-80
2022/09/03 12:36:55;;;;;;;;;;;;;;;19.16;56.56;100650.38;5070484;28;19939;-80
2022/09/03 12:39:25;;;;;;;;;;;;;;;19.21;56.14;100643.06;5062918;28;19920;-80
2022/09/03 12:42:02;;;;;;;;;;;;;;;19.24;56.14;100644.69;5072124;28;19913;-80
2022/09/03 12:44:30;;;;;;;;;;;;;;;19.11;59.63;100654.22;5065471;28;19908;-80
2022/09/03 12:47:04;;;;;;;;;;;;;;;19.19;56.64;100646.75;5089909;28;20007;-80
2022/09/03 12:49:36;;;;;;;;;;;;;;;19.08;59.62;100646.50;5070654;28;19959;-80
2022/09/03 12:52:04;;;;;;;;;;;;;;;19.18;57.11;100645.03;5069268;28;19920;-80